SBOSBO INN / LOWI
Speedbird OnlineSpeedbird Online INN / LOWI

Innsbruck Airport
00:44 4.7°C

Location Innsbruck, Austria
Latitude: 47.260201
Longitude: 11.344
Local Time 00:44 on 28 Feb 2024
UTC +1 hours (Europe/Vienna)
Currency £1 equals EUR 1.17
METAR LOWI 272320Z AUTO VRB01KT 9999 FEW020 04/03 Q1014
TAF TAF LOWI 272315Z 2800/2824 09006KT CAVOK TX11/2814Z TN04/2806Z PROB30 2800/2809 7000 BKN008
Weather As Of 28 Feb 2024 00:44
Description Few clouds
Wind 5 km/h from West (270°)
Cloud Cover 20%
Precipitation Rain: none, Snow: none
Sunrise 06:58
Sunset 17:56
NOTAM 9 active NOTAM
Rotations During the last 90 days there were
75 flights from LGW
52 flights from LHR
76 flights to LGW
56 flights to LHR
Lounges Tyrol Lounge, Main Terminal, 1st floo
Web Airport Website | Wikipedia
Codes IATA: INN
ICAO: LOWI
Altitude 581 Meter / 1907 Feet
Distance 938 KM / 583 Miles
from London.
Runways
RunwayLength (m)Surface
082000Asphalt
262000Asphalt
Radio
TypeDescriptionFrequency
APPAPP119.275
ATISATIS126.025
GND Crew121.8
GND Crew121.9
TWRTWR120.1
Live ATC



Support Speedbird Online

© 2017-2024 Speedbird Online